createdAt,value
2023-05-03T00:00:21.075Z,150103.16
2023-05-03T00:02:51.292Z,150112.19
2023-05-03T00:05:19.298Z,150190.84
2023-05-03T00:07:48.168Z,150194.72
2023-05-03T00:10:16.875Z,150188.28
2023-05-03T00:12:46.097Z,150170.22
2023-05-03T00:15:16.751Z,150216.63
2023-05-03T00:17:47.643Z,150199.88
2023-05-03T00:20:17.793Z,150165.06
2023-05-03T00:22:46.926Z,150128.97
2023-05-03T00:25:15.240Z,150132.84
2023-05-03T00:27:43.301Z,150134.13
2023-05-03T00:30:11.973Z,150157.31
2023-05-03T00:32:43.585Z,150157.31
2023-05-03T00:35:11.606Z,150150.84
2023-05-03T00:37:40.307Z,150172.78
2023-05-03T00:40:10.270Z,150152.13
2023-05-03T00:42:38.549Z,150184.41
2023-05-03T00:45:07.743Z,150167.63
2023-05-03T00:47:37.502Z,150159.88
2023-05-03T00:50:09.860Z,150144.44
2023-05-03T00:52:40.259Z,150166.34
2023-05-03T00:55:10.820Z,150152.13
2023-05-03T00:57:40.285Z,150150.84
2023-05-03T01:00:10.837Z,150165.06
2023-05-03T01:02:40.220Z,150170.22
2023-05-03T01:05:11.181Z,150185.69
2023-05-03T01:07:52.878Z,150171.50
2023-05-03T01:10:27.944Z,150219.19
2023-05-03T01:13:02.848Z,150193.44
2023-05-03T01:15:43.382Z,150210.16
2023-05-03T01:18:15.660Z,150203.72
2023-05-03T01:20:51.305Z,150198.59
2023-05-03T01:23:32.226Z,150170.22
2023-05-03T01:26:15.353Z,150194.72
2023-05-03T01:28:43.296Z,150140.59
2023-05-03T01:31:11.974Z,150201.13
2023-05-03T01:33:48.625Z,150180.53
2023-05-03T01:36:24.298Z,150117.34
2023-05-03T01:38:52.212Z,150064.53
2023-05-03T01:41:23.467Z,150029.75
2023-05-03T01:43:53.014Z,150029.75
2023-05-03T01:46:20.942Z,150000.06
2023-05-03T01:48:49.320Z,149974.34
2023-05-03T01:51:17.305Z,149942.09
2023-05-03T01:54:18.762Z,149912.50
2023-05-03T01:56:48.239Z,149921.53
2023-05-03T01:59:18.775Z,149850.66
2023-05-03T02:01:47.057Z,149876.41
2023-05-03T02:04:17.492Z,149884.13
2023-05-03T02:06:45.542Z,149871.25
2023-05-03T02:09:14.062Z,149809.47
2023-05-03T02:11:42.571Z,149675.56
2023-05-03T02:14:12.574Z,149626.69
2023-05-03T02:16:40.806Z,149544.31
2023-05-03T02:19:11.182Z,149622.81
2023-05-03T02:21:39.370Z,149752.81
2023-05-03T02:24:08.133Z,149567.50
2023-05-03T02:26:38.653Z,149487.72
2023-05-03T02:29:08.082Z,149516.03
2023-05-03T02:31:39.222Z,149492.88
2023-05-03T02:34:07.503Z,149500.59
2023-05-03T02:36:36.514Z,149516.03
2023-05-03T02:39:07.208Z,149584.22
2023-05-03T02:41:36.312Z,149667.84
2023-05-03T02:44:04.289Z,149618.94
2023-05-03T02:46:32.928Z,149671.72
2023-05-03T02:49:02.382Z,149543.03
2023-05-03T02:51:30.258Z,149590.66
2023-05-03T02:53:58.179Z,149509.59
2023-05-03T02:56:27.640Z,149405.44
2023-05-03T02:58:56.274Z,149548.19
2023-05-03T03:01:24.485Z,149534.06
2023-05-03T03:03:52.680Z,149512.19
2023-05-03T03:06:25.524Z,149482.63
2023-05-03T03:08:54.592Z,149415.72
2023-05-03T03:11:24.085Z,149405.44
2023-05-03T03:13:52.062Z,149379.69
2023-05-03T03:16:20.027Z,149321.84
2023-05-03T03:18:48.226Z,149375.88
2023-05-03T03:21:16.372Z,149433.69
2023-05-03T03:23:45.884Z,149445.28
2023-05-03T03:26:13.736Z,149544.31
2023-05-03T03:28:41.660Z,149617.66
2023-05-03T03:31:09.915Z,149537.94
2023-05-03T03:33:38.182Z,149369.47
2023-05-03T03:36:07.821Z,149334.72
2023-05-03T03:38:35.972Z,149256.34
2023-05-03T03:41:05.557Z,149374.59
2023-05-03T03:43:33.773Z,149293.59
2023-05-03T03:46:01.729Z,149267.88
2023-05-03T03:48:29.698Z,149336.00
2023-05-03T03:50:57.781Z,149482.63
2023-05-03T03:53:25.713Z,149480.03
2023-05-03T03:55:55.062Z,149531.47
2023-05-03T03:58:24.881Z,149526.34
2023-05-03T04:00:53.076Z,149617.66
2023-05-03T04:03:21.191Z,149665.28
2023-05-03T04:05:49.413Z,149680.72
2023-05-03T04:08:17.576Z,149667.84
2023-05-03T04:10:46.010Z,149630.53
2023-05-03T04:13:14.065Z,149698.75
2023-05-03T04:15:43.280Z,149709.03
2023-05-03T04:18:11.451Z,149733.50
2023-05-03T04:20:39.500Z,149750.25
2023-05-03T04:23:10.153Z,149755.41
2023-05-03T04:25:38.848Z,149774.69
2023-05-03T04:28:13.544Z,149815.88
2023-05-03T04:30:41.747Z,149844.22
2023-05-03T04:33:12.081Z,149863.56
2023-05-03T04:35:40.042Z,149886.72
2023-05-03T04:38:09.993Z,149907.34
2023-05-03T04:40:37.980Z,150000.06
2023-05-03T04:43:06.018Z,150010.41
2023-05-03T04:45:34.377Z,150005.25
2023-05-03T04:48:05.565Z,150022.00
2023-05-03T04:50:38.235Z,150036.13
2023-05-03T04:53:08.170Z,150068.38
2023-05-03T04:55:36.560Z,150103.16
2023-05-03T04:58:04.640Z,150126.38
2023-05-03T05:00:33.215Z,150159.88
2023-05-03T05:03:01.369Z,150193.44
2023-05-03T05:05:30.397Z,150234.69
2023-05-03T05:07:59.813Z,150294.00
2023-05-03T05:10:27.810Z,150308.22
2023-05-03T05:12:56.064Z,150300.47
2023-05-03T05:15:25.071Z,150327.53
2023-05-03T05:17:53.564Z,150357.22
2023-05-03T05:20:21.638Z,150383.00
2023-05-03T05:22:52.160Z,150411.41
2023-05-03T05:25:21.876Z,150442.34
2023-05-03T05:27:52.801Z,150523.69
2023-05-03T05:30:21.292Z,150592.13
2023-05-03T05:32:49.423Z,150628.31
2023-05-03T05:35:19.282Z,150620.56
2023-05-03T05:37:47.126Z,150668.31
2023-05-03T05:40:19.296Z,150772.94
2023-05-03T05:42:48.821Z,150810.38
2023-05-03T05:45:17.006Z,150898.28
2023-05-03T05:47:47.933Z,150931.88
2023-05-03T05:50:18.737Z,151036.59
2023-05-03T05:52:47.569Z,151052.13
2023-05-03T05:55:15.963Z,151114.19
2023-05-03T05:57:44.069Z,151118.06
2023-05-03T06:00:15.770Z,151142.63
2023-05-03T06:02:44.665Z,151074.13
2023-05-03T06:05:13.154Z,151107.72
2023-05-03T06:07:41.446Z,151149.09
2023-05-03T06:10:10.038Z,151202.19
2023-05-03T06:12:37.966Z,151268.19
2023-05-03T06:15:07.368Z,151339.38
2023-05-03T06:17:37.017Z,151322.53
2023-05-03T06:20:06.002Z,151335.47
2023-05-03T06:22:34.187Z,151322.53
2023-05-03T06:25:02.352Z,151488.22
2023-05-03T06:27:30.944Z,151411.88
2023-05-03T06:29:59.238Z,151459.78
2023-05-03T06:32:27.645Z,151485.63
2023-05-03T06:34:59.551Z,151446.81
2023-05-03T06:37:29.002Z,151483.03
2023-05-03T06:39:57.189Z,149396.81
2023-05-03T06:42:25.138Z,134157.38
2023-05-03T06:44:53.127Z,117283.41
2023-05-03T06:47:24.145Z,95876.88
2023-05-03T06:49:52.490Z,82051.28
2023-05-03T06:52:22.041Z,76500.22
2023-05-03T06:54:53.577Z,60235.19
2023-05-03T06:57:22.891Z,47367.50
2023-05-03T06:59:50.832Z,41413.13
2023-05-03T07:02:19.559Z,26003.72
2023-05-03T07:04:47.880Z,12299.63
2023-05-03T07:07:16.885Z,11626.88
2023-05-03T07:09:46.423Z,9728.25
2023-05-03T07:12:14.772Z,8120.13
2023-05-03T07:14:44.330Z,2894.41
2023-05-03T07:17:22.062Z,1810.16
2023-05-03T07:20:11.238Z,301.91
2023-05-03T07:22:39.298Z,-4762.69
2023-05-03T07:25:14.757Z,-10507.28
2023-05-03T07:27:43.569Z,-12539.41
2023-05-03T07:30:14.591Z,-20112.72
2023-05-03T07:32:42.718Z,-20128.56
2023-05-03T07:35:12.405Z,-20132.34
2023-05-03T07:37:40.414Z,5998.38
2023-05-03T07:40:11.928Z,94288.88
2023-05-03T07:42:41.169Z,124258.94
2023-05-03T07:45:10.219Z,98149.50
2023-05-03T07:47:40.031Z,30487.47
2023-05-03T07:50:10.840Z,15758.34
2023-05-03T07:52:42.403Z,3834.00
2023-05-03T07:55:11.094Z,-16957.34
2023-05-03T07:57:41.837Z,-20113.16
2023-05-03T08:00:13.578Z,-20096.47
2023-05-03T08:02:42.462Z,-20103.50
2023-05-03T08:05:14.966Z,-20110.34
2023-05-03T08:07:43.198Z,-20125.34
2023-05-03T08:10:12.480Z,-20118.19
2023-05-03T08:12:42.303Z,-20117.09
2023-05-03T08:15:10.893Z,-20106.84
2023-05-03T08:17:43.001Z,-20107.84
2023-05-03T08:20:12.628Z,44552.72
2023-05-03T08:22:41.358Z,-11920.47
2023-05-03T08:25:10.253Z,-16516.47
2023-05-03T08:27:39.047Z,-19468.06
2023-05-03T08:30:10.728Z,-20123.25
2023-05-03T08:32:39.286Z,-20102.94
2023-05-03T08:35:08.263Z,-20116.53
2023-05-03T08:37:43.432Z,-20112.59
2023-05-03T08:40:14.523Z,-20112.31
2023-05-03T08:42:43.470Z,-20114.97
2023-05-03T08:45:15.804Z,-20118.75
2023-05-03T08:47:45.051Z,-20114.13
2023-05-03T08:50:14.499Z,-20120.16
2023-05-03T08:52:44.281Z,-20117.78
2023-05-03T08:55:12.851Z,-20111.75
2023-05-03T08:57:42.445Z,-20121.84
2023-05-03T09:00:12.876Z,-20118.47
2023-05-03T09:02:42.926Z,-20111.75
2023-05-03T09:05:41.525Z,-20107.69
2023-05-03T09:08:29.579Z,-20128.41
2023-05-03T09:11:07.564Z,-20141.44
2023-05-03T09:13:43.620Z,-20160.22
2023-05-03T09:16:12.658Z,-20155.44
2023-05-03T09:22:33.990Z,-20123.09
2023-05-03T09:25:03.638Z,-20124.38
2023-05-03T09:27:31.645Z,-20109.66
2023-05-03T09:30:19.332Z,-20117.09
2023-05-03T09:32:51.047Z,-20117.09
2023-05-03T09:35:19.357Z,-20110.78
2023-05-03T09:37:51.658Z,-20119.59
2023-05-03T09:40:22.237Z,-20144.81
2023-05-03T09:43:13.035Z,-13278.09
2023-05-03T09:45:41.359Z,-5031.53
2023-05-03T09:48:10.379Z,-20134.75
2023-05-03T09:50:38.919Z,-20140.47
2023-05-03T09:53:10.312Z,-18175.03
2023-05-03T09:55:41.280Z,-20130.66
2023-05-03T09:58:09.539Z,-20132.19
2023-05-03T10:00:39.435Z,-20124.22
2023-05-03T10:03:10.545Z,-20136.69
2023-05-03T10:05:48.703Z,-1068.38
2023-05-03T10:08:32.039Z,7891.13
2023-05-03T10:11:00.514Z,1584.75
2023-05-03T10:13:31.236Z,37974.56
2023-05-03T10:16:04.902Z,54413.06
2023-05-03T10:18:39.086Z,73694.44
2023-05-03T10:21:21.165Z,77409.91
2023-05-03T10:24:13.964Z,75049.97
2023-05-03T10:26:45.987Z,65877.84
2023-05-03T10:29:50.122Z,123926.38
2023-05-03T10:32:46.395Z,116771.06
2023-05-03T10:35:16.510Z,109927.63
2023-05-03T10:37:45.766Z,153255.72
2023-05-03T10:40:16.725Z,153590.59
2023-05-03T10:42:46.594Z,153597.13
2023-05-03T10:45:26.370Z,153491.53
2023-05-03T10:48:20.804Z,153250.50
2023-05-03T10:50:50.292Z,153421.16
2023-05-03T10:53:41.332Z,153296.19
2023-05-03T10:56:12.391Z,153320.91
2023-05-03T10:58:47.947Z,152962.88
2023-05-03T11:01:18.086Z,152848.44
2023-05-03T11:03:53.374Z,152706.63
2023-05-03T11:06:36.259Z,152461.09
2023-05-03T11:09:08.263Z,152393.50
2023-05-03T11:11:39.704Z,152596.16
2023-05-03T11:14:08.588Z,153061.81
2023-05-03T11:16:40.647Z,153176.34
2023-05-03T11:19:09.244Z,153494.16
2023-05-03T11:21:37.812Z,153505.88
2023-05-03T11:24:06.665Z,153415.94
2023-05-03T11:26:38.850Z,153095.63
2023-05-03T11:29:07.441Z,152806.78
2023-05-03T11:31:36.598Z,152968.03
2023-05-03T11:34:05.075Z,153052.69
2023-05-03T11:36:37.338Z,153186.72
2023-05-03T11:39:07.127Z,152853.59
2023-05-03T11:41:36.731Z,152865.31
2023-05-03T11:46:43.134Z,152723.59
2023-05-03T11:49:18.121Z,152840.63
2023-05-03T11:51:49.096Z,153162.00
2023-05-03T11:54:25.404Z,153055.31
2023-05-03T11:56:59.197Z,152923.84
2023-05-03T11:59:39.935Z,152960.28
2023-05-03T12:02:10.528Z,152657.25
2023-05-03T12:04:43.244Z,152674.16
2023-05-03T12:07:15.255Z,152813.28
2023-05-03T12:09:52.836Z,152965.44
2023-05-03T12:12:27.826Z,153298.72
2023-05-03T12:15:03.868Z,153569.78
2023-05-03T12:17:38.898Z,153547.59
2023-05-03T12:20:51.826Z,153242.69
2023-05-03T12:23:09.890Z,153232.31
2023-05-03T12:25:43.891Z,153551.53
2023-05-03T12:28:20.144Z,153693.56
2023-05-03T12:30:53.202Z,153666.22
2023-05-03T12:33:23.370Z,153487.63
2023-05-03T12:35:54.636Z,153375.59
2023-05-03T12:38:25.276Z,153427.69
2023-05-03T12:40:54.670Z,153442.03
2023-05-03T12:43:23.130Z,153603.66
2023-05-03T12:46:14.832Z,153413.34
2023-05-03T12:48:46.063Z,153659.69
2023-05-03T12:53:47.287Z,153861.84
2023-05-03T12:56:16.114Z,153664.91
2023-05-03T12:59:11.018Z,153663.63
2023-05-03T13:02:40.732Z,153844.91
2023-05-03T13:07:00.470Z,153515.00
2023-05-03T13:09:38.949Z,153593.22
2023-05-03T13:12:20.465Z,153838.38
2023-05-03T13:14:48.982Z,153608.88
2023-05-03T13:17:20.664Z,153462.91
2023-05-03T13:19:48.467Z,153341.75
2023-05-03T13:22:17.668Z,153451.16
2023-05-03T13:24:48.123Z,153431.59
2023-05-03T13:27:16.714Z,153558.03
2023-05-03T13:29:49.074Z,153911.41
2023-05-03T13:32:20.232Z,153824.03
2023-05-03T13:35:02.542Z,153640.13
2023-05-03T13:37:31.662Z,153567.16
2023-05-03T13:39:59.579Z,153621.91
2023-05-03T13:42:27.670Z,153777.03
2023-05-03T13:44:55.746Z,153885.34
2023-05-03T13:47:27.019Z,154066.75
2023-05-03T13:49:57.841Z,153971.41
2023-05-03T13:52:28.386Z,154202.47
2023-05-03T13:54:58.266Z,154115.03
2023-05-03T13:57:26.483Z,154051.06
2023-05-03T13:59:54.328Z,154209.00
2023-05-03T14:02:22.618Z,154283.50
2023-05-03T14:05:08.206Z,153554.13
2023-05-03T14:07:36.549Z,153495.44
2023-05-03T14:10:06.703Z,153749.63
2023-05-03T14:12:36.754Z,153569.78
2023-05-03T14:15:05.334Z,153818.81
2023-05-03T14:17:33.839Z,154055.00
2023-05-03T14:20:06.862Z,153650.56
2023-05-03T14:22:35.180Z,153867.06
2023-05-03T14:25:03.882Z,153916.63
2023-05-03T14:27:33.402Z,153899.69
2023-05-03T14:30:01.384Z,153974.03
2023-05-03T14:32:29.655Z,153934.91
2023-05-03T14:34:57.867Z,153902.31
2023-05-03T14:37:27.563Z,153730.09
2023-05-03T14:39:56.004Z,153672.75
2023-05-03T14:42:24.126Z,153779.66
2023-05-03T14:44:52.112Z,153588.00
2023-05-03T14:47:21.849Z,153517.63
2023-05-03T14:49:52.211Z,153668.84
2023-05-03T14:52:25.438Z,153598.44
2023-05-03T14:54:55.066Z,153676.66
2023-05-03T14:57:23.114Z,153486.31
2023-05-03T14:59:51.231Z,153843.59
2023-05-03T15:02:19.474Z,154018.44
2023-05-03T15:04:49.317Z,153796.66
2023-05-03T15:07:17.607Z,153255.72
2023-05-03T15:09:46.244Z,153384.72
2023-05-03T15:12:17.070Z,153413.34
2023-05-03T15:14:46.738Z,153658.41
2023-05-03T15:17:14.910Z,153827.94
2023-05-03T15:19:43.014Z,153546.31
2023-05-03T15:22:10.990Z,153462.91
2023-05-03T15:24:39.248Z,153546.31
2023-05-03T15:27:07.562Z,153597.13
2023-05-03T15:29:38.403Z,153661.00
2023-05-03T15:32:07.880Z,153689.66
2023-05-03T15:34:37.357Z,153266.16
2023-05-03T15:37:05.389Z,153224.50
2023-05-03T15:39:35.638Z,153485.00
2023-05-03T15:42:03.933Z,153471.97
2023-05-03T15:44:32.218Z,153574.94
2023-05-03T15:47:02.950Z,153100.84
2023-05-03T15:49:31.500Z,153633.59
2023-05-03T15:52:09.107Z,153483.72
2023-05-03T15:54:38.186Z,153475.88
2023-05-03T15:57:06.669Z,153009.72
2023-05-03T15:59:37.636Z,152901.75
2023-05-03T16:02:09.082Z,152835.41
2023-05-03T16:04:38.918Z,153082.59
2023-05-03T16:07:08.820Z,152867.91
2023-05-03T16:09:37.205Z,152932.94
2023-05-03T16:12:06.166Z,153065.72
2023-05-03T16:14:34.930Z,153244.00
2023-05-03T16:17:03.232Z,153574.94
2023-05-03T16:19:37.639Z,153442.03
2023-05-03T16:22:06.723Z,153405.56
2023-05-03T16:24:35.594Z,153305.25
2023-05-03T16:27:04.065Z,153106.03
2023-05-03T16:29:33.979Z,153128.19
2023-05-03T16:32:02.112Z,153143.78
2023-05-03T16:34:30.551Z,153096.94
2023-05-03T16:37:00.877Z,153283.09
2023-05-03T16:39:32.874Z,153330.00
2023-05-03T16:42:03.839Z,153204.97
2023-05-03T16:44:41.455Z,153186.72
2023-05-03T16:47:13.316Z,153040.97
2023-05-03T16:49:42.319Z,152845.81
2023-05-03T16:52:14.501Z,152809.38
2023-05-03T16:54:48.629Z,152819.78
2023-05-03T16:57:16.672Z,152921.22
2023-05-03T16:59:45.139Z,153012.38
2023-05-03T17:02:21.852Z,153089.13
2023-05-03T17:04:49.892Z,152969.34
2023-05-03T17:07:20.518Z,152783.41
2023-05-03T17:09:48.883Z,152869.22
2023-05-03T17:12:16.968Z,153009.72
2023-05-03T17:14:45.464Z,152981.06
2023-05-03T17:17:13.781Z,152866.59
2023-05-03T17:19:41.750Z,152991.50
2023-05-03T17:22:10.005Z,152965.44
2023-05-03T17:24:42.833Z,152923.84
2023-05-03T17:27:11.972Z,152865.31
2023-05-03T17:29:40.484Z,152831.50
2023-05-03T17:32:09.974Z,152840.63
2023-05-03T17:34:38.213Z,152809.38
2023-05-03T17:37:08.877Z,152704.03
2023-05-03T17:39:47.310Z,152691.03
2023-05-03T17:42:17.891Z,152546.81
2023-05-03T17:44:52.998Z,136964.94
2023-05-03T17:47:29.587Z,98535.72
2023-05-03T17:50:04.737Z,103589.41
2023-05-03T17:52:40.118Z,106511.75
2023-05-03T17:55:22.204Z,138563.78
2023-05-03T17:57:54.039Z,145910.00
2023-05-03T18:00:25.462Z,145815.94
2023-05-03T18:02:53.869Z,151348.78
2023-05-03T18:05:23.049Z,152237.72
2023-05-03T18:07:51.172Z,149546.09
2023-05-03T18:10:21.270Z,152065.13
2023-05-03T18:12:49.428Z,152057.31
2023-05-03T18:15:17.760Z,151993.72
2023-05-03T18:17:45.866Z,151856.22
2023-05-03T18:20:14.699Z,151839.41
2023-05-03T18:22:42.856Z,151762.91
2023-05-03T18:25:11.533Z,151708.50
2023-05-03T18:27:46.603Z,151620.34
2023-05-03T18:30:15.559Z,151602.22
2023-05-03T18:32:43.785Z,151565.94
2023-05-03T18:35:11.727Z,123635.09
2023-05-03T18:37:39.865Z,15386.00
2023-05-03T18:40:10.262Z,-20083.44
2023-05-03T18:42:41.527Z,-20078.66
2023-05-03T18:45:15.210Z,-20079.38
2023-05-03T18:47:44.205Z,-20077.84
2023-05-03T18:50:13.889Z,-20074.59
2023-05-03T18:52:42.051Z,-20070.25
2023-05-03T18:55:11.731Z,-20066.59
2023-05-03T18:57:41.238Z,-20064.91
2023-05-03T19:00:11.259Z,-20063.53
2023-05-03T19:02:42.640Z,-20059.03
2023-05-03T19:05:14.084Z,-20056.94
2023-05-03T19:07:43.038Z,-20058.47
2023-05-03T19:10:12.454Z,-20054.97
2023-05-03T19:12:44.769Z,-20054.53
2023-05-03T19:15:13.534Z,-20062.13
2023-05-03T19:17:42.875Z,-20058.63
2023-05-03T19:20:12.180Z,-20054.53
2023-05-03T19:22:40.516Z,-20055.38
2023-05-03T19:25:10.515Z,-20052.00
2023-05-03T19:27:39.276Z,-20049.78
2023-05-03T19:30:10.451Z,-20049.50
2023-05-03T19:32:39.327Z,-20045.00
2023-05-03T19:35:09.571Z,-20041.47
2023-05-03T19:37:43.718Z,-20045.28
2023-05-03T19:40:16.874Z,-20045.84
2023-05-03T19:42:44.976Z,-20040.63
2023-05-03T19:45:15.176Z,-20040.34
2023-05-03T19:47:44.403Z,-20036.28
2023-05-03T19:50:20.728Z,-20034.03
2023-05-03T19:52:52.688Z,-20034.88
2023-05-03T19:55:20.810Z,-20035.44
2023-05-03T19:57:49.385Z,-20035.00
2023-05-03T20:00:22.021Z,-20031.22
2023-05-03T20:02:51.060Z,-20035.28
2023-05-03T20:05:19.589Z,-20030.09
2023-05-03T20:07:54.404Z,-20024.19
2023-05-03T20:10:25.122Z,-20021.09
2023-05-03T20:12:53.315Z,-19731.41
2023-05-03T20:15:34.795Z,-6218.34
2023-05-03T20:18:03.433Z,18306.44
2023-05-03T20:20:32.676Z,44514.50
2023-05-03T20:23:04.595Z,55386.41
2023-05-03T20:25:33.876Z,64013.59
2023-05-03T20:28:25.390Z,70401.59
2023-05-03T20:30:56.147Z,75482.16
2023-05-03T20:33:25.124Z,81925.50
2023-05-03T20:35:56.374Z,85476.81
2023-05-03T20:38:27.690Z,84370.06
2023-05-03T20:40:58.253Z,83462.38
2023-05-03T20:43:27.398Z,82826.25
2023-05-03T20:45:58.068Z,82780.50
2023-05-03T20:48:27.285Z,82118.91
2023-05-03T20:50:58.190Z,80766.16
2023-05-03T20:53:29.656Z,80689.06
2023-05-03T20:56:01.754Z,79863.16
2023-05-03T20:58:30.673Z,79044.31
2023-05-03T21:01:08.579Z,78785.44
2023-05-03T21:03:37.134Z,77376.84
2023-05-03T21:06:06.936Z,76329.41
2023-05-03T21:08:36.785Z,75861.31
2023-05-03T21:11:05.552Z,75298.69
2023-05-03T21:13:37.938Z,74643.41
2023-05-03T21:16:11.884Z,74296.91
2023-05-03T21:18:42.049Z,79404.63
2023-05-03T21:21:10.511Z,79972.59
2023-05-03T21:23:39.607Z,79189.16
2023-05-03T21:26:09.781Z,78654.22
2023-05-03T21:28:39.812Z,79164.97
2023-05-03T21:31:12.218Z,78677.56
2023-05-03T21:33:40.439Z,78716.28
2023-05-03T21:36:12.631Z,79774.88
2023-05-03T21:38:41.055Z,80050.91
2023-05-03T21:41:12.905Z,79496.38
2023-05-03T21:43:43.925Z,81168.13
2023-05-03T21:46:16.731Z,80695.44
2023-05-03T21:48:46.645Z,78975.00
2023-05-03T21:51:19.199Z,79558.06
2023-05-03T21:53:47.708Z,78810.66
2023-05-03T21:56:16.166Z,78804.50
2023-05-03T21:58:45.494Z,80130.25
2023-05-03T22:01:16.424Z,81071.47
2023-05-03T22:03:44.799Z,80183.59
2023-05-03T22:06:15.163Z,80398.00
2023-05-03T22:08:46.364Z,79687.47
2023-05-03T22:11:28.982Z,83155.50
2023-05-03T22:14:08.403Z,83641.91
2023-05-03T22:16:44.185Z,83255.91
2023-05-03T22:19:40.115Z,83354.53
2023-05-03T22:22:08.536Z,83874.03
2023-05-03T22:24:39.879Z,83367.22
2023-05-03T22:27:36.569Z,82549.44
2023-05-03T22:30:06.715Z,78811.63
2023-05-03T22:32:40.292Z,78519.88
2023-05-03T22:35:11.013Z,77159.59
2023-05-03T22:37:40.105Z,75803.47
2023-05-03T22:40:13.290Z,72917.84
2023-05-03T22:42:43.910Z,73389.84
2023-05-03T22:45:13.829Z,75685.97
2023-05-03T22:47:44.495Z,76269.81
2023-05-03T22:50:12.871Z,78840.25
2023-05-03T22:52:40.921Z,73985.34
2023-05-03T22:55:12.067Z,75044.00
2023-05-03T22:57:42.426Z,74852.16
2023-05-03T23:00:11.585Z,74818.88
2023-05-03T23:02:40.970Z,71350.47
2023-05-03T23:05:26.531Z,69924.72
2023-05-03T23:07:54.902Z,70739.50
2023-05-03T23:10:24.060Z,71362.88
2023-05-03T23:12:54.261Z,73152.25
2023-05-03T23:15:25.234Z,69775.06
2023-05-03T23:17:53.222Z,69693.50
2023-05-03T23:20:27.520Z,69928.78
2023-05-03T23:22:55.502Z,69345.00
2023-05-03T23:25:23.659Z,68621.03
2023-05-03T23:27:52.158Z,67873.66
2023-05-03T23:30:20.477Z,68626.34
2023-05-03T23:32:49.920Z,68196.66
2023-05-03T23:35:18.482Z,67022.47
2023-05-03T23:37:48.300Z,69111.44
2023-05-03T23:40:16.480Z,73355.78
2023-05-03T23:42:46.548Z,75593.88
2023-05-03T23:45:14.665Z,80990.50
2023-05-03T23:47:42.722Z,82266.53
2023-05-03T23:50:12.486Z,83504.53
2023-05-03T23:52:40.561Z,85039.09
2023-05-03T23:55:12.889Z,81598.69
2023-05-03T23:57:41.084Z,83831.38
